Aérodrome :
LOGIN :

S'inscrire | Disclaimer

   EN    FR    IT 

 










Légende :    VFR   VFR Marginal   IFR   IFR Intensif   IFR Très Intensif
Visi : 
Plafond : 
>= 8 km
>= 3000ft
5 à 8 km
1000 à 3000 ft
1500m à 5 km
500 à 1000 ft
800 à 1500m
200 à 500 ft
< 800m
< 200 ft
Symboles :   Orages  Brouillard  Fortes neiges  Fortes précipitations  Vent > 20 kt
SIGMETs :   Divers  Orages  Givrage  Turbulence  Onde Orograph.  Cendres Volcan.






- Altitude de l'aérodrome : 19 ft
- Code IATA : LCY


EGLC - London City

DERNIER METAR :
  • 211720Z AUTO 29006KT 4000 RA FEW007/// SCT014/// BKN021/// //////CB 15/14 Q1008

METARs EXPIRÉS :
  • 211650Z AUTO 29005KT 5000 -RA BKN007/// BKN013/// BKN018/// //////CB 15/14 Q1008 RERA
  • 211620Z AUTO 26006KT 7000 -RA BKN007/// OVC019/// //////CB 15/14 Q1008 RERA
  • 211550Z AUTO 26005KT 4600 RA BKN008/// BKN013/// OVC022/// //////CB 15/13 Q1008
  • 211520Z AUTO 29004KT 6000 -RA FEW008/// BKN015/// BKN024/// //////TCU 15/13 Q1009
  • 211450Z AUTO 28005KT 6000 -RA FEW007/// BKN022/// OVC036/// //////TCU 15/13 Q1009
  • 211420Z AUTO 30003KT 270V350 6000 -RA FEW007/// SCT010/// OVC020/// //////TCU 15/13 Q1009
  • 211350Z AUTO 29004KT 5000 -RADZ SCT007 BKN012 BKN018 15/13 Q1009
  • 211320Z AUTO 33003KT 8000 -RA BKN010 BKN018 OVC028 15/13 Q1009
  • 211250Z AUTO 34003KT 310V010 7000 -RA BKN012/// BKN031/// //////TCU 15/13 Q1009
  • 211220Z AUTO 01004KT 300V060 7000 -RA BKN011 BKN015 14/12 Q1009

TAF TAF EGLC
Valide du 21 à 18h jusqu'au 21 à 21h UTC


211659Z 2118/2121 25006KT 9999 SCT015
TEMPO 2118/2121 7000 SHRA BKN010
PROB30
TEMPO 2118/2121 3000 +SHRA +TSGS BKN006 BKN025CB
ATIS : +44 20 7646 0224



MET'MAP, la Météo Aéronautique d'un coup d'oeil ! - Copyright ORBIFLY Décembre 2007 - Disclaimer

ORBIFLY MET'MAP TEAM :

Programmation & Développement : Alexandra Zaïnal
Sur une idée originale de : Baudouin d'Aumeries
Soutien technique & logistique : Manuel Goepfert
Assistance : Marc-Olivier Méhu




SOURCES & CREDITS :

   NOAA